createdAt,value
2018-10-03T00:00:07.342Z,16.93
2018-10-03T00:02:34.642Z,13.53
2018-10-03T00:05:01.969Z,21.23
2018-10-03T00:07:29.368Z,13.47
2018-10-03T00:09:56.704Z,13.63
2018-10-03T00:12:23.955Z,15.23
2018-10-03T00:14:51.303Z,18.73
2018-10-03T00:17:18.589Z,13.43
2018-10-03T00:19:45.877Z,18.80
2018-10-03T00:22:13.166Z,16.40
2018-10-03T00:24:40.415Z,15.20
2018-10-03T00:27:07.750Z,16.47
2018-10-03T00:29:35.019Z,16.27
2018-10-03T00:32:02.347Z,20.53
2018-10-03T00:34:29.621Z,16.67
2018-10-03T00:36:56.929Z,14.83
2018-10-03T00:39:24.193Z,16.67
2018-10-03T00:41:51.603Z,17.93
2018-10-03T00:44:18.879Z,19.37
2018-10-03T00:46:46.169Z,15.70
2018-10-03T00:49:13.455Z,16.40
2018-10-03T00:51:40.753Z,16.17
2018-10-03T00:54:08.097Z,19.83
2018-10-03T00:56:35.455Z,17.63
2018-10-03T00:59:02.823Z,15.07
2018-10-03T01:01:30.181Z,15.37
2018-10-03T01:03:57.584Z,18.73
2018-10-03T01:06:24.849Z,12.90
2018-10-03T01:08:52.212Z,13.13
2018-10-03T01:11:19.564Z,15.47
2018-10-03T01:13:47.369Z,18.07
2018-10-03T01:16:14.665Z,17.77
2018-10-03T01:18:41.941Z,23.33
2018-10-03T01:21:09.244Z,13.00
2018-10-03T01:23:36.560Z,11.60
2018-10-03T01:26:04.042Z,15.37
2018-10-03T01:28:31.353Z,18.07
2018-10-03T01:30:58.634Z,15.80
2018-10-03T01:33:25.951Z,15.67
2018-10-03T01:35:53.306Z,21.53
2018-10-03T01:38:20.611Z,15.23
2018-10-03T01:40:47.856Z,14.37
2018-10-03T01:43:15.276Z,18.53
2018-10-03T01:45:42.556Z,17.57
2018-10-03T01:48:09.844Z,15.63
2018-10-03T01:50:37.106Z,16.67
2018-10-03T01:53:04.404Z,14.17
2018-10-03T01:55:31.728Z,15.97
2018-10-03T01:57:59.003Z,17.70
2018-10-03T02:00:26.438Z,19.77
2018-10-03T02:02:53.713Z,17.07
2018-10-03T02:05:21.028Z,16.63
2018-10-03T02:07:48.302Z,14.40
2018-10-03T02:10:15.612Z,15.07
2018-10-03T02:12:42.931Z,15.23
2018-10-03T02:15:10.253Z,12.93
2018-10-03T02:17:37.561Z,17.47
2018-10-03T02:20:05.449Z,17.93
2018-10-03T02:22:32.723Z,15.77
2018-10-03T02:24:59.993Z,19.03
2018-10-03T02:27:27.384Z,13.93
2018-10-03T02:29:54.669Z,13.20
2018-10-03T02:32:22.041Z,19.17
2018-10-03T02:34:49.251Z,18.90
2018-10-03T02:37:16.580Z,20.37
2018-10-03T02:39:43.827Z,15.37
2018-10-03T02:42:11.114Z,14.17
2018-10-03T02:44:38.392Z,14.83
2018-10-03T02:47:05.784Z,15.03
2018-10-03T02:49:33.114Z,17.90
2018-10-03T02:52:00.386Z,18.27
2018-10-03T02:54:27.788Z,17.77
2018-10-03T02:56:55.019Z,16.23
2018-10-03T02:59:22.325Z,14.67
2018-10-03T03:01:49.704Z,16.03
2018-10-03T03:04:16.948Z,17.60
2018-10-03T03:06:44.224Z,18.83
2018-10-03T03:09:13.014Z,14.63
2018-10-03T03:11:40.319Z,14.90
2018-10-03T03:14:07.677Z,17.30
2018-10-03T03:16:34.937Z,15.17
2018-10-03T03:19:02.278Z,17.63
2018-10-03T03:21:29.881Z,17.10
2018-10-03T03:23:57.179Z,15.20
2018-10-03T03:26:24.466Z,15.27
2018-10-03T03:28:51.742Z,15.43
2018-10-03T03:31:19.060Z,20.53
2018-10-03T03:33:46.326Z,12.67
2018-10-03T03:36:13.603Z,13.60
2018-10-03T03:38:40.873Z,15.33
2018-10-03T03:41:08.154Z,17.03
2018-10-03T03:43:35.489Z,16.37
2018-10-03T03:46:02.777Z,16.17
2018-10-03T03:48:30.097Z,14.33
2018-10-03T03:50:57.373Z,11.70
2018-10-03T03:53:24.622Z,13.63
2018-10-03T03:55:51.981Z,13.87
2018-10-03T03:58:19.227Z,15.73
2018-10-03T04:00:46.587Z,18.40
2018-10-03T04:03:13.937Z,16.60
2018-10-03T04:05:41.296Z,15.43
2018-10-03T04:08:08.861Z,16.67
2018-10-03T04:10:36.160Z,15.83
2018-10-03T04:13:03.480Z,16.07
2018-10-03T04:15:30.888Z,16.13
2018-10-03T04:17:58.160Z,16.20
2018-10-03T04:20:25.460Z,16.47
2018-10-03T04:22:52.855Z,20.30
2018-10-03T04:25:20.114Z,18.63
2018-10-03T04:27:47.434Z,19.50
2018-10-03T04:30:14.695Z,20.87
2018-10-03T04:32:41.984Z,12.57
2018-10-03T04:35:09.286Z,16.33
2018-10-03T04:37:36.546Z,20.87
2018-10-03T04:40:04.011Z,16.97
2018-10-03T04:42:31.282Z,12.73
2018-10-03T04:44:58.605Z,18.37
2018-10-03T04:47:25.952Z,16.67
2018-10-03T04:49:53.342Z,16.07
2018-10-03T04:52:20.814Z,14.07
2018-10-03T04:54:48.176Z,18.60
2018-10-03T04:57:15.526Z,17.83
2018-10-03T04:59:42.802Z,21.23
2018-10-03T05:02:10.234Z,14.17
2018-10-03T05:04:37.857Z,18.17
2018-10-03T05:07:05.484Z,11.30
2018-10-03T05:09:32.783Z,16.07
2018-10-03T05:12:00.085Z,21.37
2018-10-03T05:14:27.458Z,15.43
2018-10-03T05:16:54.833Z,14.57
2018-10-03T05:19:22.209Z,16.13
2018-10-03T05:21:49.661Z,16.23
2018-10-03T05:24:17.006Z,23.53
2018-10-03T05:26:44.397Z,14.13
2018-10-03T05:29:11.767Z,15.73
2018-10-03T05:31:39.251Z,19.23
2018-10-03T05:34:07.270Z,17.83
2018-10-03T05:36:34.702Z,15.80
2018-10-03T05:39:02.132Z,15.27
2018-10-03T05:41:29.607Z,10.10
2018-10-03T05:43:56.874Z,13.70
2018-10-03T05:46:24.178Z,14.73
2018-10-03T05:48:51.774Z,15.20
2018-10-03T05:51:19.180Z,18.10
2018-10-03T05:53:46.562Z,16.80
2018-10-03T05:56:13.864Z,15.87
2018-10-03T05:58:41.150Z,18.43
2018-10-03T06:01:08.535Z,17.57
2018-10-03T06:03:35.800Z,15.73
2018-10-03T06:06:03.102Z,17.63
2018-10-03T06:08:30.376Z,18.97
2018-10-03T06:10:58.245Z,12.77
2018-10-03T06:13:25.682Z,18.10
2018-10-03T06:15:53.857Z,17.37
2018-10-03T06:18:21.232Z,18.27
2018-10-03T06:20:49.052Z,13.60
2018-10-03T06:23:16.492Z,13.77
2018-10-03T06:25:43.740Z,18.57
2018-10-03T06:28:11.318Z,12.70
2018-10-03T06:30:38.710Z,14.93
2018-10-03T06:33:06.051Z,16.53
2018-10-03T06:35:33.514Z,16.57
2018-10-03T06:38:00.929Z,16.80
2018-10-03T06:40:28.315Z,14.90
2018-10-03T06:42:55.606Z,17.43
2018-10-03T06:45:23.143Z,15.87
2018-10-03T06:47:50.523Z,19.77
2018-10-03T06:50:17.860Z,18.37
2018-10-03T06:52:45.297Z,14.63
2018-10-03T06:55:12.636Z,11.03
2018-10-03T06:57:40.515Z,15.87
2018-10-03T07:00:07.799Z,18.37
2018-10-03T07:02:35.131Z,17.80
2018-10-03T07:05:02.435Z,15.90
2018-10-03T07:07:34.016Z,15.43
2018-10-03T07:10:01.391Z,17.77
2018-10-03T07:12:28.681Z,16.00
2018-10-03T07:14:56.066Z,12.93
2018-10-03T07:17:23.341Z,13.53
2018-10-03T07:19:51.277Z,17.23
2018-10-03T07:22:18.665Z,20.53
2018-10-03T07:24:45.986Z,15.17
2018-10-03T07:27:13.402Z,12.30
2018-10-03T07:29:40.839Z,12.17
2018-10-03T07:32:08.747Z,13.27
2018-10-03T07:34:36.256Z,14.27
2018-10-03T07:37:03.750Z,17.90
2018-10-03T07:39:31.075Z,16.10
2018-10-03T07:41:58.578Z,13.33
2018-10-03T07:44:25.858Z,13.77
2018-10-03T07:46:53.452Z,12.00
2018-10-03T07:49:20.934Z,13.40
2018-10-03T07:51:48.321Z,14.07
2018-10-03T07:54:15.652Z,13.27
2018-10-03T07:56:42.926Z,8.63
2018-10-03T07:59:10.493Z,14.60
2018-10-03T08:01:37.838Z,14.23
2018-10-03T08:04:05.398Z,13.07
2018-10-03T08:06:33.419Z,16.33
2018-10-03T08:09:00.806Z,12.60
2018-10-03T08:11:28.274Z,13.60
2018-10-03T08:13:56.013Z,12.57
2018-10-03T08:16:23.399Z,13.10
2018-10-03T08:18:50.747Z,14.83
2018-10-03T08:21:18.074Z,17.63
2018-10-03T08:23:45.355Z,14.83
2018-10-03T08:26:12.729Z,11.33
2018-10-03T08:28:40.001Z,15.00
2018-10-03T08:31:07.332Z,10.57
2018-10-03T08:33:34.818Z,14.77
2018-10-03T08:36:02.382Z,15.27
2018-10-03T08:38:29.853Z,12.97
2018-10-03T08:40:57.166Z,17.43
2018-10-03T08:43:24.459Z,12.40
2018-10-03T08:45:51.810Z,18.33
2018-10-03T08:48:19.239Z,14.53
2018-10-03T08:50:46.686Z,14.70
2018-10-03T08:53:14.121Z,11.53
2018-10-03T08:55:41.510Z,14.77
2018-10-03T08:58:08.902Z,9.00
2018-10-03T09:00:36.260Z,11.40
2018-10-03T09:03:03.651Z,10.53
2018-10-03T09:05:30.904Z,14.93
2018-10-03T09:08:09.425Z,13.00
2018-10-03T09:10:37.009Z,11.83
2018-10-03T09:13:04.390Z,11.43
2018-10-03T09:15:31.794Z,10.23
2018-10-03T09:17:59.403Z,14.30
2018-10-03T09:20:26.751Z,13.67
2018-10-03T09:22:54.573Z,14.63
2018-10-03T09:25:22.059Z,11.10
2018-10-03T09:27:49.339Z,12.40
2018-10-03T09:30:16.724Z,11.37
2018-10-03T09:32:44.147Z,14.67
2018-10-03T09:35:11.545Z,11.13
2018-10-03T09:37:38.915Z,11.40
2018-10-03T09:40:06.309Z,15.40
2018-10-03T09:42:33.590Z,13.80
2018-10-03T09:45:00.972Z,11.07
2018-10-03T09:47:28.437Z,12.37
2018-10-03T09:49:55.796Z,10.63
2018-10-03T09:52:23.174Z,9.80
2018-10-03T09:54:50.628Z,10.47
2018-10-03T09:57:18.016Z,16.33
2018-10-03T09:59:45.411Z,9.43
2018-10-03T10:02:12.903Z,11.27
2018-10-03T10:04:40.178Z,8.60
2018-10-03T10:07:09.332Z,13.47
2018-10-03T10:09:37.199Z,10.17
2018-10-03T10:12:04.496Z,10.10
2018-10-03T10:14:31.906Z,10.80
2018-10-03T10:16:59.205Z,11.93
2018-10-03T10:19:26.777Z,9.77
2018-10-03T10:21:54.245Z,9.00
2018-10-03T10:24:21.521Z,13.20
2018-10-03T10:26:48.790Z,13.50
2018-10-03T10:29:16.856Z,9.60
2018-10-03T10:31:44.423Z,8.80
2018-10-03T10:34:11.822Z,12.47
2018-10-03T10:36:39.375Z,6.73
2018-10-03T10:39:08.634Z,10.80
2018-10-03T10:41:36.225Z,8.17
2018-10-03T10:44:03.602Z,10.20
2018-10-03T10:46:31.076Z,8.67
2018-10-03T10:48:58.532Z,9.20
2018-10-03T10:51:25.865Z,12.87
2018-10-03T10:53:53.218Z,11.03
2018-10-03T10:56:20.528Z,10.80
2018-10-03T10:58:47.852Z,9.50
2018-10-03T11:01:15.135Z,11.90
2018-10-03T11:03:42.515Z,12.17
2018-10-03T11:06:10.382Z,12.60
2018-10-03T11:08:38.424Z,8.37
2018-10-03T11:11:05.802Z,9.37
2018-10-03T11:13:33.334Z,11.17
2018-10-03T11:16:00.868Z,8.03
2018-10-03T11:18:28.318Z,10.23
2018-10-03T11:21:01.585Z,10.77
2018-10-03T11:23:28.970Z,8.47
2018-10-03T11:25:56.965Z,8.30
2018-10-03T11:28:24.460Z,8.63
2018-10-03T11:30:51.871Z,7.73
2018-10-03T11:33:19.240Z,9.17
2018-10-03T11:35:46.703Z,8.80
2018-10-03T11:38:14.105Z,5.20
2018-10-03T11:40:41.482Z,8.60
2018-10-03T11:43:08.784Z,35.37
2018-10-03T11:45:36.740Z,11.00
2018-10-03T11:48:04.203Z,8.83
2018-10-03T11:50:31.639Z,34.77
2018-10-03T11:52:58.941Z,10.40
2018-10-03T11:55:26.243Z,7.90
2018-10-03T11:57:53.632Z,9.73
2018-10-03T12:00:21.123Z,5.77
2018-10-03T12:02:48.510Z,5.47
2018-10-03T12:05:16.050Z,9.97
2018-10-03T12:07:43.430Z,10.17
2018-10-03T12:10:11.362Z,5.93
2018-10-03T12:12:38.775Z,5.40
2018-10-03T12:15:06.404Z,8.27
2018-10-03T12:17:34.431Z,6.97
2018-10-03T12:20:01.839Z,7.10
2018-10-03T12:22:29.906Z,7.03
2018-10-03T12:24:57.349Z,5.50
2018-10-03T12:27:25.214Z,6.10
2018-10-03T12:29:52.644Z,4.60
2018-10-03T12:32:19.958Z,6.77
2018-10-03T12:34:47.573Z,6.53
2018-10-03T12:37:15.056Z,4.50
2018-10-03T12:39:42.493Z,5.97
2018-10-03T12:42:09.931Z,6.03
2018-10-03T12:44:37.402Z,5.77
2018-10-03T12:47:05.741Z,7.70
2018-10-03T12:49:33.255Z,4.57
2018-10-03T12:52:00.699Z,8.40
2018-10-03T12:54:28.239Z,4.77
2018-10-03T12:56:55.659Z,5.60
2018-10-03T12:59:22.933Z,5.80
2018-10-03T13:01:50.390Z,4.50
2018-10-03T13:04:25.944Z,6.90
2018-10-03T13:06:53.679Z,4.93
2018-10-03T13:09:21.064Z,5.20
2018-10-03T13:11:48.528Z,6.93
2018-10-03T13:14:15.954Z,8.07
2018-10-03T13:16:43.278Z,4.70
2018-10-03T13:19:10.654Z,6.50
2018-10-03T13:21:39.078Z,7.23
2018-10-03T13:24:06.395Z,6.03
2018-10-03T13:26:33.735Z,6.20
2018-10-03T13:29:01.908Z,4.07
2018-10-03T13:31:29.268Z,4.03
2018-10-03T13:33:56.615Z,3.80
2018-10-03T13:36:24.036Z,3.73
2018-10-03T13:38:51.368Z,4.90
2018-10-03T13:41:18.797Z,6.67
2018-10-03T13:43:46.146Z,5.23
2018-10-03T13:46:13.510Z,6.40
2018-10-03T13:48:40.921Z,5.27
2018-10-03T13:51:08.681Z,4.73
2018-10-03T13:53:36.073Z,4.50
2018-10-03T13:56:03.363Z,5.53
2018-10-03T13:58:30.796Z,4.97
2018-10-03T14:00:58.158Z,4.03
2018-10-03T14:03:25.545Z,4.87
2018-10-03T14:05:52.794Z,6.33
2018-10-03T14:08:20.201Z,9.80
2018-10-03T14:10:47.673Z,5.30
2018-10-03T14:13:15.086Z,6.37
2018-10-03T14:15:42.398Z,6.00
2018-10-03T14:18:09.793Z,6.77
2018-10-03T14:20:37.138Z,4.87
2018-10-03T14:23:04.495Z,5.50
2018-10-03T14:25:31.880Z,4.50
2018-10-03T14:27:59.288Z,5.97
2018-10-03T14:30:26.672Z,3.03
2018-10-03T14:32:54.010Z,4.33
2018-10-03T14:35:21.383Z,6.27
2018-10-03T14:37:48.799Z,5.83
2018-10-03T14:40:16.708Z,4.60
2018-10-03T14:42:44.005Z,5.07
2018-10-03T14:45:11.450Z,3.90
2018-10-03T14:47:38.810Z,4.23
2018-10-03T14:50:06.484Z,3.70
2018-10-03T14:52:34.517Z,4.33
2018-10-03T14:55:01.762Z,3.53
2018-10-03T14:57:29.664Z,3.90
2018-10-03T14:59:56.923Z,6.03
2018-10-03T15:02:24.314Z,2.97
2018-10-03T15:04:51.685Z,6.07
2018-10-03T15:07:19.078Z,4.77
2018-10-03T15:09:46.606Z,4.87
2018-10-03T15:12:13.929Z,4.63
2018-10-03T15:14:41.342Z,4.67
2018-10-03T15:17:08.812Z,3.00
2018-10-03T15:19:36.336Z,3.97
2018-10-03T15:22:03.815Z,5.90
2018-10-03T15:24:31.194Z,3.57
2018-10-03T15:26:58.601Z,4.60
2018-10-03T15:29:26.179Z,3.87
2018-10-03T15:31:53.461Z,4.07
2018-10-03T15:34:21.535Z,6.93
2018-10-03T15:36:49.438Z,3.77
2018-10-03T15:39:16.791Z,9.83
2018-10-03T15:41:44.061Z,6.57
2018-10-03T15:44:11.471Z,5.13
2018-10-03T15:46:38.765Z,4.70
2018-10-03T15:49:06.299Z,5.07
2018-10-03T15:51:33.607Z,4.37
2018-10-03T15:54:01.009Z,4.50
2018-10-03T15:56:28.378Z,3.50
2018-10-03T15:58:55.761Z,6.67
2018-10-03T16:01:23.098Z,4.67
2018-10-03T16:03:50.462Z,6.10
2018-10-03T16:06:17.804Z,3.80
2018-10-03T16:08:45.141Z,5.40
2018-10-03T16:11:12.401Z,4.43
2018-10-03T16:13:39.724Z,3.80
2018-10-03T16:16:07.066Z,5.40
2018-10-03T16:18:34.478Z,4.43
2018-10-03T16:21:01.877Z,5.07
2018-10-03T16:23:29.199Z,7.23
2018-10-03T16:25:56.525Z,9.87
2018-10-03T16:28:23.957Z,6.23
2018-10-03T16:30:51.246Z,6.23
2018-10-03T16:33:18.648Z,6.30
2018-10-03T16:35:46.105Z,4.73
2018-10-03T16:38:13.496Z,7.40
2018-10-03T16:40:40.867Z,4.77
2018-10-03T16:43:08.186Z,6.17
2018-10-03T16:45:35.554Z,4.97
2018-10-03T16:48:02.930Z,4.17
2018-10-03T16:50:30.353Z,4.07
2018-10-03T16:52:58.460Z,4.93
2018-10-03T16:55:25.940Z,3.47
2018-10-03T16:57:53.367Z,4.70
2018-10-03T17:00:20.807Z,4.23
2018-10-03T17:02:48.244Z,5.17
2018-10-03T17:05:15.633Z,2.93
2018-10-03T17:07:42.984Z,6.77
2018-10-03T17:10:10.331Z,7.23
2018-10-03T17:12:37.865Z,7.37
2018-10-03T17:15:05.393Z,8.37
2018-10-03T17:17:33.610Z,6.07
2018-10-03T17:20:01.900Z,6.63
2018-10-03T17:22:29.491Z,6.37
2018-10-03T17:24:57.952Z,5.63
2018-10-03T17:27:25.355Z,7.20
2018-10-03T17:29:53.119Z,4.50
2018-10-03T17:32:20.413Z,4.53
2018-10-03T17:34:47.834Z,3.67
2018-10-03T17:37:15.283Z,7.07
2018-10-03T17:39:42.813Z,3.67
2018-10-03T17:42:10.873Z,4.63
2018-10-03T17:44:38.973Z,12.93
2018-10-03T17:47:06.547Z,16.40
2018-10-03T17:49:33.878Z,18.43
2018-10-03T17:52:01.370Z,12.97
2018-10-03T17:54:28.784Z,8.63
2018-10-03T17:56:57.016Z,5.53
2018-10-03T17:59:25.416Z,7.57
2018-10-03T18:01:54.908Z,9.03
2018-10-03T18:04:22.312Z,6.30
2018-10-03T18:06:49.712Z,11.90
2018-10-03T18:09:17.448Z,6.93
2018-10-03T18:11:45.032Z,7.10
2018-10-03T18:14:12.654Z,7.60
2018-10-03T18:16:41.143Z,7.57
2018-10-03T18:19:08.717Z,6.80
2018-10-03T18:21:36.656Z,8.27
2018-10-03T18:24:04.297Z,8.43
2018-10-03T18:26:31.686Z,8.03
2018-10-03T18:28:58.996Z,8.97
2018-10-03T18:31:27.021Z,8.43
2018-10-03T18:33:54.395Z,8.13
2018-10-03T18:36:21.729Z,6.97
2018-10-03T18:38:49.340Z,7.07
2018-10-03T18:41:16.876Z,9.13
2018-10-03T18:43:44.242Z,7.73
2018-10-03T18:46:11.497Z,8.20
2018-10-03T18:48:38.937Z,13.70
2018-10-03T18:51:06.483Z,9.03
2018-10-03T18:53:34.083Z,9.10
2018-10-03T18:56:01.441Z,9.63
2018-10-03T18:58:28.873Z,10.57
2018-10-03T19:00:56.302Z,6.63
2018-10-03T19:03:23.633Z,5.20
2018-10-03T19:05:51.154Z,9.53
2018-10-03T19:08:18.516Z,8.03
2018-10-03T19:10:45.875Z,8.70
2018-10-03T19:13:13.210Z,12.27
2018-10-03T19:15:40.538Z,4.67
2018-10-03T19:18:07.917Z,7.57
2018-10-03T19:20:35.351Z,6.73
2018-10-03T19:23:03.177Z,6.63
2018-10-03T19:25:31.064Z,10.60
2018-10-03T19:27:58.675Z,7.60
2018-10-03T19:30:26.223Z,9.47
2018-10-03T19:32:53.725Z,9.30
2018-10-03T19:35:20.998Z,5.40
2018-10-03T19:37:48.411Z,8.33
2018-10-03T19:40:15.706Z,8.83
2018-10-03T19:42:43.070Z,6.07
2018-10-03T19:45:10.380Z,8.13
2018-10-03T19:47:37.710Z,8.47
2018-10-03T19:50:05.761Z,7.77
2018-10-03T19:52:33.175Z,7.80
2018-10-03T19:55:00.436Z,8.30
2018-10-03T19:57:27.782Z,8.33
2018-10-03T19:59:55.120Z,6.23
2018-10-03T20:02:22.450Z,5.13
2018-10-03T20:04:50.466Z,6.93
2018-10-03T20:07:17.760Z,7.50
2018-10-03T20:09:45.100Z,8.03
2018-10-03T20:12:12.490Z,6.47
2018-10-03T20:14:39.890Z,9.33
2018-10-03T20:17:07.210Z,7.90
2018-10-03T20:19:34.646Z,8.40
2018-10-03T20:22:02.044Z,6.83
2018-10-03T20:24:29.615Z,7.20
2018-10-03T20:26:56.955Z,6.13
2018-10-03T20:29:24.252Z,7.27
2018-10-03T20:31:51.644Z,10.03
2018-10-03T20:34:18.910Z,6.70
2018-10-03T20:36:46.247Z,6.83
2018-10-03T20:39:13.543Z,7.63
2018-10-03T20:41:40.947Z,7.13
2018-10-03T20:44:08.151Z,6.57
2018-10-03T20:46:35.533Z,11.67
2018-10-03T20:49:02.864Z,9.80
2018-10-03T20:51:30.190Z,9.80
2018-10-03T20:53:57.569Z,7.30
2018-10-03T20:56:25.502Z,9.70
2018-10-03T20:58:52.827Z,4.43
2018-10-03T21:01:20.208Z,8.77
2018-10-03T21:03:47.478Z,9.53
2018-10-03T21:06:14.812Z,7.13
2018-10-03T21:08:42.240Z,8.23
2018-10-03T21:11:09.560Z,5.50
2018-10-03T21:13:36.878Z,8.47
2018-10-03T21:16:04.213Z,7.57
2018-10-03T21:18:32.180Z,8.23
2018-10-03T21:20:59.808Z,6.20
2018-10-03T21:23:27.074Z,8.90
2018-10-03T21:25:54.385Z,7.73
2018-10-03T21:28:21.733Z,9.13
2018-10-03T21:30:49.409Z,6.40
2018-10-03T21:33:16.747Z,10.20
2018-10-03T21:35:44.076Z,8.47
2018-10-03T21:38:11.477Z,7.53
2018-10-03T21:40:38.856Z,9.27
2018-10-03T21:43:06.292Z,11.80
2018-10-03T21:45:33.603Z,8.50
2018-10-03T21:48:00.928Z,6.50
2018-10-03T21:50:28.235Z,8.00
2018-10-03T21:52:55.614Z,9.03
2018-10-03T21:55:22.906Z,9.20
2018-10-03T21:57:50.213Z,4.47
2018-10-03T22:00:17.679Z,5.97
2018-10-03T22:02:44.959Z,10.03
2018-10-03T22:05:12.293Z,9.83
2018-10-03T22:07:39.855Z,9.73
2018-10-03T22:10:07.294Z,5.30
2018-10-03T22:12:34.949Z,8.93
2018-10-03T22:15:02.225Z,9.37
2018-10-03T22:17:34.068Z,10.53
2018-10-03T22:20:01.343Z,12.80
2018-10-03T22:22:28.781Z,7.77
2018-10-03T22:24:56.182Z,10.40
2018-10-03T22:27:23.616Z,8.30
2018-10-03T22:29:51.001Z,5.43
2018-10-03T22:32:18.339Z,10.43
2018-10-03T22:34:46.463Z,7.57
2018-10-03T22:37:13.756Z,10.23
2018-10-03T22:39:41.506Z,6.50
2018-10-03T22:42:08.857Z,6.90
2018-10-03T22:44:36.172Z,7.90
2018-10-03T22:47:03.461Z,7.80
2018-10-03T22:49:30.842Z,7.93
2018-10-03T22:51:58.170Z,10.97
2018-10-03T22:54:25.513Z,7.57
2018-10-03T22:56:52.810Z,13.27
2018-10-03T22:59:20.107Z,7.60
2018-10-03T23:01:47.440Z,10.93
2018-10-03T23:04:14.745Z,8.33
2018-10-03T23:06:42.063Z,7.20
2018-10-03T23:09:09.357Z,10.03
2018-10-03T23:11:37.029Z,12.27
2018-10-03T23:14:04.402Z,7.57
2018-10-03T23:16:31.673Z,11.27
2018-10-03T23:18:58.950Z,9.73
2018-10-03T23:21:26.263Z,9.00
2018-10-03T23:23:53.609Z,7.97
2018-10-03T23:26:20.945Z,8.00
2018-10-03T23:28:48.224Z,6.93
2018-10-03T23:31:15.659Z,10.43
2018-10-03T23:33:44.425Z,7.03
2018-10-03T23:36:11.727Z,12.27
2018-10-03T23:38:39.084Z,10.30
2018-10-03T23:41:06.355Z,10.40
2018-10-03T23:43:33.691Z,7.97
2018-10-03T23:46:00.973Z,7.47
2018-10-03T23:48:28.276Z,7.97
2018-10-03T23:50:55.535Z,9.57
2018-10-03T23:53:23.117Z,10.63
2018-10-03T23:55:51.291Z,9.83
2018-10-03T23:58:18.477Z,9.23
